createdAt,value
2023-02-11T00:00:16.973Z,98908.03
2023-02-11T00:02:46.059Z,98918.13
2023-02-11T00:05:14.267Z,98907.78
2023-02-11T00:07:40.754Z,98915.91
2023-02-11T00:10:08.147Z,98914.91
2023-02-11T00:12:36.249Z,98916.09
2023-02-11T00:15:03.357Z,98913.28
2023-02-11T00:17:29.866Z,98918.31
2023-02-11T00:19:56.363Z,98924.34
2023-02-11T00:22:22.996Z,98923.25
2023-02-11T00:24:49.542Z,98912.28
2023-02-11T00:27:16.055Z,98915.78
2023-02-11T00:29:42.525Z,98915.63
2023-02-11T00:32:09.776Z,98915.66
2023-02-11T00:34:36.611Z,98923.94
2023-02-11T00:37:03.628Z,98929.53
2023-02-11T00:39:30.486Z,98931.53
2023-02-11T00:41:57.464Z,98926.88
2023-02-11T00:44:24.070Z,98924.03
2023-02-11T00:46:50.691Z,98924.44
2023-02-11T00:49:17.491Z,98920.31
2023-02-11T00:51:44.107Z,98920.53
2023-02-11T00:54:10.625Z,98922.63
2023-02-11T00:56:37.311Z,98920.47
2023-02-11T00:59:03.861Z,98916.03
2023-02-11T01:01:30.550Z,98908.31
2023-02-11T01:03:57.078Z,98907.03
2023-02-11T01:06:23.661Z,98908.25
2023-02-11T01:08:50.322Z,98906.38
2023-02-11T01:11:20.033Z,98911.03
2023-02-11T01:13:48.999Z,98900.88
2023-02-11T01:16:15.927Z,98898.22
2023-02-11T01:18:44.404Z,98895.69
2023-02-11T01:21:11.356Z,98900.00
2023-02-11T01:23:37.883Z,98887.59
2023-02-11T01:26:05.327Z,98888.41
2023-02-11T01:28:32.996Z,98887.78
2023-02-11T01:31:01.219Z,98881.41
2023-02-11T01:33:27.907Z,98892.19
2023-02-11T01:35:54.641Z,98890.97
2023-02-11T01:38:26.034Z,98878.56
2023-02-11T01:41:01.612Z,98882.28
2023-02-11T01:43:32.520Z,98877.19
2023-02-11T01:46:32.912Z,98879.59
2023-02-11T01:49:05.531Z,98874.69
2023-02-11T01:51:54.944Z,98869.13
2023-02-11T01:54:44.717Z,98863.50
2023-02-11T01:57:25.094Z,98862.69
2023-02-11T02:00:07.482Z,98859.56
2023-02-11T02:03:01.994Z,98852.69
2023-02-11T02:05:39.116Z,98845.03
2023-02-11T02:08:14.880Z,98845.97
2023-02-11T02:10:45.772Z,98840.09
2023-02-11T02:13:12.895Z,98838.91
2023-02-11T02:15:44.133Z,98842.59
2023-02-11T02:18:19.773Z,98836.84
2023-02-11T02:21:05.096Z,98834.16
2023-02-11T02:24:09.105Z,98828.00
2023-02-11T02:27:10.277Z,98833.22
2023-02-11T02:30:04.148Z,98820.41
2023-02-11T02:32:38.441Z,98825.78
2023-02-11T02:35:38.690Z,98820.63
2023-02-11T02:38:13.100Z,98827.22
2023-02-11T02:40:54.706Z,98829.06
2023-02-11T02:43:22.897Z,98824.03
2023-02-11T02:45:49.569Z,98817.09
2023-02-11T02:48:26.602Z,98816.66
2023-02-11T02:51:19.759Z,98816.47
2023-02-11T02:54:14.890Z,98821.41
2023-02-11T02:56:46.274Z,98813.16
2023-02-11T02:59:30.534Z,98804.91
2023-02-11T03:02:12.086Z,98807.50
2023-02-11T03:04:56.925Z,98810.16
2023-02-11T03:07:42.958Z,98801.63
2023-02-11T03:10:19.262Z,98804.25
2023-02-11T03:12:48.542Z,98800.53
2023-02-11T03:15:17.460Z,98802.63
2023-02-11T03:17:50.226Z,98804.72
2023-02-11T03:20:19.901Z,98806.56
2023-02-11T03:22:48.648Z,98807.16
2023-02-11T03:25:15.580Z,98809.66
2023-02-11T03:28:08.528Z,98808.44
2023-02-11T03:30:40.504Z,98794.44
2023-02-11T03:33:18.885Z,98802.94
2023-02-11T03:35:54.480Z,98793.38
2023-02-11T03:38:26.143Z,98783.78
2023-02-11T03:40:55.350Z,98789.44
2023-02-11T03:43:28.003Z,98790.09
2023-02-11T03:45:56.509Z,98792.00
2023-02-11T03:48:29.522Z,98791.88
2023-02-11T03:50:58.343Z,98808.13
2023-02-11T03:53:24.881Z,98810.50
2023-02-11T03:55:54.124Z,98816.00
2023-02-11T03:58:20.859Z,98820.03
2023-02-11T04:00:47.438Z,98817.06
2023-02-11T04:03:14.273Z,98813.38
2023-02-11T04:05:41.202Z,98802.78
2023-02-11T04:08:08.155Z,98807.00
2023-02-11T04:10:34.877Z,98805.34
2023-02-11T04:13:01.398Z,98806.22
2023-02-11T04:15:27.978Z,98813.28
2023-02-11T04:17:54.482Z,98808.94
2023-02-11T04:20:21.166Z,98813.59
2023-02-11T04:22:47.584Z,98812.09
2023-02-11T04:25:14.064Z,98814.72
2023-02-11T04:27:40.688Z,98820.09
2023-02-11T04:30:08.023Z,98806.75
2023-02-11T04:32:34.530Z,98803.44
2023-02-11T04:35:01.123Z,98803.94
2023-02-11T04:37:27.652Z,98810.03
2023-02-11T04:39:54.223Z,98815.09
2023-02-11T04:42:20.762Z,98830.09
2023-02-11T04:44:47.347Z,98824.84
2023-02-11T04:47:15.368Z,98823.75
2023-02-11T04:49:42.377Z,98825.16
2023-02-11T04:52:09.335Z,98823.06
2023-02-11T04:54:35.799Z,98823.22
2023-02-11T04:57:02.676Z,98814.22
2023-02-11T04:59:29.337Z,98821.34
2023-02-11T05:01:55.941Z,98813.81
2023-02-11T05:04:22.494Z,98816.66
2023-02-11T05:06:49.132Z,98817.59
2023-02-11T05:09:16.743Z,98808.91
2023-02-11T05:11:43.479Z,98806.31
2023-02-11T05:14:09.987Z,98804.56
2023-02-11T05:16:36.549Z,98806.06
2023-02-11T05:19:03.198Z,98805.03
2023-02-11T05:21:29.760Z,98793.03
2023-02-11T05:23:57.199Z,98789.16
2023-02-11T05:26:23.751Z,98793.50
2023-02-11T05:28:50.258Z,98790.31
2023-02-11T05:31:16.943Z,98791.97
2023-02-11T05:33:43.569Z,98792.19
2023-02-11T05:36:11.742Z,98784.31
2023-02-11T05:38:38.702Z,98775.16
2023-02-11T05:41:06.704Z,98777.09
2023-02-11T05:43:35.329Z,98769.75
2023-02-11T05:46:02.320Z,98759.97
2023-02-11T05:48:28.898Z,98755.78
2023-02-11T05:50:55.490Z,98752.91
2023-02-11T05:53:21.990Z,98755.25
2023-02-11T05:55:48.588Z,98745.41
2023-02-11T05:58:15.322Z,98742.56
2023-02-11T06:00:41.864Z,98744.25
2023-02-11T06:03:08.508Z,98745.53
2023-02-11T06:05:35.062Z,98725.44
2023-02-11T06:08:01.651Z,98717.94
2023-02-11T06:10:28.132Z,98733.63
2023-02-11T06:12:54.589Z,98735.16
2023-02-11T06:15:21.136Z,98755.44
2023-02-11T06:17:47.632Z,98762.31
2023-02-11T06:20:14.289Z,98755.59
2023-02-11T06:22:40.724Z,98753.22
2023-02-11T06:25:07.319Z,98735.84
2023-02-11T06:27:33.853Z,98738.22
2023-02-11T06:30:00.311Z,98752.09
2023-02-11T06:32:43.711Z,98757.41
2023-02-11T06:35:12.232Z,98780.19
2023-02-11T06:37:39.184Z,98775.44
2023-02-11T06:40:06.124Z,98781.44
2023-02-11T06:42:32.700Z,98777.31
2023-02-11T06:44:59.344Z,98770.22
2023-02-11T06:47:25.946Z,98772.88
2023-02-11T06:49:52.377Z,98788.69
2023-02-11T06:52:18.822Z,98781.63
2023-02-11T06:54:45.265Z,98777.81
2023-02-11T06:57:11.708Z,98792.50
2023-02-11T06:59:38.202Z,98780.19
2023-02-11T07:02:04.918Z,98785.53
2023-02-11T07:04:31.559Z,98771.25
2023-02-11T07:06:58.222Z,98779.97
2023-02-11T07:09:24.698Z,98790.81
2023-02-11T07:11:51.147Z,98789.72
2023-02-11T07:14:17.888Z,98797.38
2023-02-11T07:16:44.353Z,98796.16
2023-02-11T07:19:10.808Z,98797.38
2023-02-11T07:21:37.458Z,98797.81
2023-02-11T07:24:10.795Z,98798.50
2023-02-11T07:26:37.774Z,98800.69
2023-02-11T07:29:04.266Z,98802.56
2023-02-11T07:31:31.487Z,98800.47
2023-02-11T07:34:01.925Z,98799.44
2023-02-11T07:36:30.272Z,98794.34
2023-02-11T07:38:56.644Z,98792.16
2023-02-11T07:41:25.122Z,98792.81
2023-02-11T07:43:51.766Z,98779.72
2023-02-11T07:46:23.965Z,98777.91
2023-02-11T07:48:50.993Z,98777.09
2023-02-11T07:51:26.326Z,98787.78
2023-02-11T07:53:53.587Z,98787.53
2023-02-11T07:56:21.265Z,98788.63
2023-02-11T07:58:48.212Z,98803.28
2023-02-11T08:01:25.389Z,98816.31
2023-02-11T08:03:52.848Z,98814.91
2023-02-11T08:06:21.997Z,98811.00
2023-02-11T08:08:49.322Z,98799.69
2023-02-11T08:11:18.462Z,98788.56
2023-02-11T08:13:45.430Z,98788.78
2023-02-11T08:16:26.921Z,98789.69
2023-02-11T08:18:55.923Z,98785.25
2023-02-11T08:21:22.414Z,98774.31
2023-02-11T08:23:49.797Z,98780.44
2023-02-11T08:26:25.244Z,98788.13
2023-02-11T08:28:53.388Z,98782.72
2023-02-11T08:31:21.540Z,98773.91
2023-02-11T08:33:48.123Z,98773.47
2023-02-11T08:36:18.111Z,98776.91
2023-02-11T08:38:45.337Z,98774.53
2023-02-11T08:41:14.874Z,98774.63
2023-02-11T08:43:44.991Z,98777.03
2023-02-11T08:46:15.158Z,98788.03
2023-02-11T08:48:41.670Z,98789.06
2023-02-11T08:51:10.268Z,98803.22
2023-02-11T08:53:37.329Z,98805.72
2023-02-11T08:56:04.055Z,98811.25
2023-02-11T08:58:30.592Z,98816.63
2023-02-11T09:00:57.118Z,98810.25
2023-02-11T09:03:23.674Z,98805.03
2023-02-11T09:05:53.102Z,98795.19
2023-02-11T09:08:20.981Z,98795.31
2023-02-11T09:10:48.162Z,98787.50
2023-02-11T09:13:15.140Z,98785.06
2023-02-11T09:15:45.250Z,98783.63
2023-02-11T09:18:12.071Z,98782.78
2023-02-11T09:20:38.783Z,98778.94
2023-02-11T09:23:05.332Z,98773.78
2023-02-11T09:25:31.820Z,98775.38
2023-02-11T09:27:58.343Z,98782.09
2023-02-11T09:30:24.959Z,98773.78
2023-02-11T09:32:51.481Z,98781.31
2023-02-11T09:35:18.207Z,98785.72
2023-02-11T09:37:44.740Z,98786.69
2023-02-11T09:40:12.716Z,98786.34
2023-02-11T09:43:04.011Z,98788.50
2023-02-11T09:45:31.300Z,98792.72
2023-02-11T09:48:21.585Z,98797.47
2023-02-11T09:51:00.345Z,98794.97
2023-02-11T09:53:29.661Z,98785.06
2023-02-11T09:55:59.816Z,98789.19
2023-02-11T09:58:29.786Z,98779.97
2023-02-11T10:01:21.826Z,98774.03
2023-02-11T10:04:03.947Z,98767.78
2023-02-11T10:06:36.914Z,98773.06
2023-02-11T10:09:33.416Z,98773.84
2023-02-11T10:12:15.108Z,98778.56
2023-02-11T10:14:53.441Z,98773.81
2023-02-11T10:17:35.090Z,98775.00
2023-02-11T10:20:04.620Z,98778.56
2023-02-11T10:22:41.296Z,98773.19
2023-02-11T10:25:27.787Z,98771.97
2023-02-11T10:27:57.910Z,98772.38
2023-02-11T10:30:39.530Z,98765.84
2023-02-11T10:33:14.950Z,98769.22
2023-02-11T10:35:43.945Z,98763.34
2023-02-11T10:38:11.586Z,98763.78
2023-02-11T10:40:38.345Z,98760.00
2023-02-11T10:43:13.472Z,98757.13
2023-02-11T10:45:51.822Z,98749.78
2023-02-11T10:48:51.675Z,98745.44
2023-02-11T10:51:21.888Z,98751.72
2023-02-11T10:54:04.854Z,98752.00
2023-02-11T10:56:34.691Z,98748.47
2023-02-11T10:59:21.602Z,98744.78
2023-02-11T11:01:59.336Z,98724.13
2023-02-11T11:04:35.432Z,98724.91
2023-02-11T11:07:15.729Z,98716.84
2023-02-11T11:09:47.205Z,98733.06
2023-02-11T11:12:32.588Z,98735.06
2023-02-11T11:15:03.070Z,98714.91
2023-02-11T11:17:29.866Z,98717.59
2023-02-11T11:20:23.838Z,98718.34
2023-02-11T11:22:52.853Z,98708.97
2023-02-11T11:25:28.204Z,98700.06
2023-02-11T11:27:59.154Z,98713.00
2023-02-11T11:30:32.836Z,98712.88
2023-02-11T11:33:00.628Z,98709.66
2023-02-11T11:35:29.718Z,98708.28
2023-02-11T11:38:02.390Z,98719.66
2023-02-11T11:40:31.429Z,98715.09
2023-02-11T11:43:13.165Z,98714.34
2023-02-11T11:45:40.222Z,98710.22
2023-02-11T11:48:23.853Z,98701.81
2023-02-11T11:50:56.239Z,98702.28
2023-02-11T11:53:45.532Z,98703.81
2023-02-11T11:56:20.339Z,98708.56
2023-02-11T11:58:47.221Z,98700.72
2023-02-11T12:01:32.446Z,98697.09
2023-02-11T12:04:27.692Z,98702.63
2023-02-11T12:07:11.964Z,98696.31
2023-02-11T12:10:00.412Z,98696.94
2023-02-11T12:12:51.570Z,98692.03
2023-02-11T12:15:23.915Z,98682.41
2023-02-11T12:18:07.307Z,98676.69
2023-02-11T12:20:50.428Z,98677.69
2023-02-11T12:23:27.164Z,98687.19
2023-02-11T12:26:15.008Z,98687.91
2023-02-11T12:28:44.439Z,98680.34
2023-02-11T12:31:14.036Z,98689.34
2023-02-11T12:33:51.374Z,98686.91
2023-02-11T12:36:47.073Z,98679.84
2023-02-11T12:39:26.076Z,98682.16
2023-02-11T12:42:35.602Z,98676.63
2023-02-11T12:45:18.938Z,98676.00
2023-02-11T12:48:13.696Z,98672.00
2023-02-11T12:50:57.291Z,98670.00
2023-02-11T12:54:00.740Z,98674.75
2023-02-11T12:56:38.897Z,98673.91
2023-02-11T12:59:14.235Z,98673.13
2023-02-11T13:01:44.051Z,98668.53
2023-02-11T13:04:33.504Z,98666.00
2023-02-11T13:07:06.297Z,98667.25
2023-02-11T13:09:41.664Z,98663.84
2023-02-11T13:12:31.171Z,98659.81
2023-02-11T13:15:03.219Z,98655.47
2023-02-11T13:17:41.035Z,98655.47
2023-02-11T13:20:33.810Z,98644.78
2023-02-11T13:23:31.704Z,98656.00
2023-02-11T13:26:11.211Z,98640.88
2023-02-11T13:29:10.299Z,98644.72
2023-02-11T13:31:37.050Z,98656.88
2023-02-11T13:34:04.026Z,98648.75
2023-02-11T13:36:33.052Z,98643.84
2023-02-11T13:39:06.425Z,98641.25
2023-02-11T13:41:36.898Z,98640.47
2023-02-11T13:44:24.529Z,98637.88
2023-02-11T13:46:51.022Z,98628.06
2023-02-11T13:49:31.605Z,98628.53
2023-02-11T13:51:59.794Z,98634.13
2023-02-11T13:54:39.253Z,98631.63
2023-02-11T13:57:20.944Z,98637.91
2023-02-11T13:59:49.088Z,98645.63
2023-02-11T14:02:41.793Z,98647.72
2023-02-11T14:05:26.937Z,98648.44
2023-02-11T14:08:30.105Z,98649.59
2023-02-11T14:11:02.032Z,98642.06
2023-02-11T14:13:37.157Z,98641.63
2023-02-11T14:16:20.395Z,98635.94
2023-02-11T14:18:54.876Z,98631.97
2023-02-11T14:21:27.440Z,98626.91
2023-02-11T14:24:14.485Z,98623.78
2023-02-11T14:27:06.284Z,98618.56
2023-02-11T14:29:51.115Z,98621.84
2023-02-11T14:32:48.283Z,98625.56
2023-02-11T14:35:36.195Z,98623.16
2023-02-11T14:38:20.832Z,98630.06
2023-02-11T14:40:47.262Z,98635.75
2023-02-11T14:43:19.776Z,98637.34
2023-02-11T14:45:51.425Z,98632.63
2023-02-11T14:48:20.273Z,98629.19
2023-02-11T14:50:51.928Z,98623.06
2023-02-11T14:53:22.564Z,98636.84
2023-02-11T14:55:52.573Z,98630.31
2023-02-11T14:58:24.996Z,98630.31
2023-02-11T15:01:01.594Z,98634.44
2023-02-11T15:03:38.482Z,98632.78
2023-02-11T15:06:18.495Z,98634.00
2023-02-11T15:08:51.698Z,98636.88
2023-02-11T15:11:21.284Z,98642.13
2023-02-11T15:13:49.729Z,98639.00
2023-02-11T15:16:20.786Z,98642.81
2023-02-11T15:18:51.776Z,98645.19
2023-02-11T15:21:33.785Z,98654.91
2023-02-11T15:24:03.646Z,98650.59
2023-02-11T15:26:30.285Z,98652.47
2023-02-11T15:28:56.744Z,98660.84
2023-02-11T15:31:25.838Z,98654.69
2023-02-11T15:33:52.623Z,98663.22
2023-02-11T15:36:21.762Z,98667.16
2023-02-11T15:39:31.461Z,98667.28
2023-02-11T15:42:16.605Z,98667.75
2023-02-11T15:44:43.242Z,98665.34
2023-02-11T15:47:16.961Z,98664.72
2023-02-11T15:49:46.176Z,98666.66
2023-02-11T15:52:14.716Z,98665.31
2023-02-11T15:54:49.225Z,98674.38
2023-02-11T15:57:16.470Z,98672.69
2023-02-11T15:59:48.568Z,98669.03
2023-02-11T16:02:22.197Z,98672.84
2023-02-11T16:04:53.418Z,98674.88
2023-02-11T16:07:46.291Z,98677.59
2023-02-11T16:10:17.894Z,98680.06
2023-02-11T16:13:01.807Z,98679.59
2023-02-11T16:15:34.346Z,98678.59
2023-02-11T16:18:03.157Z,98677.66
2023-02-11T16:20:30.241Z,98685.69
2023-02-11T16:22:56.868Z,98681.34
2023-02-11T16:25:23.919Z,98690.72
2023-02-11T16:27:54.315Z,98692.53
2023-02-11T16:30:30.937Z,98694.31
2023-02-11T16:32:57.542Z,98699.00
2023-02-11T16:35:24.137Z,98701.31
2023-02-11T16:37:50.678Z,98710.84
2023-02-11T16:40:17.562Z,98704.63
2023-02-11T16:42:44.002Z,98712.97
2023-02-11T16:45:10.649Z,98715.75
2023-02-11T16:47:40.956Z,98716.25
2023-02-11T16:50:19.135Z,98725.53
2023-02-11T16:52:46.360Z,98727.81
2023-02-11T16:55:13.307Z,98736.44
2023-02-11T16:57:40.230Z,98747.06
2023-02-11T17:00:07.592Z,98753.94
2023-02-11T17:02:36.001Z,98747.72
2023-02-11T17:05:06.347Z,98750.00
2023-02-11T17:07:33.484Z,98746.41
2023-02-11T17:10:00.419Z,98753.59
2023-02-11T17:12:27.096Z,98754.50
2023-02-11T17:14:54.151Z,98763.53
2023-02-11T17:17:22.751Z,98763.53
2023-02-11T17:19:49.259Z,98766.84
2023-02-11T17:22:16.125Z,98767.44
2023-02-11T17:24:42.758Z,98767.47
2023-02-11T17:27:11.674Z,98774.00
2023-02-11T17:29:38.156Z,98775.38
2023-02-11T17:32:04.741Z,98779.13
2023-02-11T17:34:32.361Z,98779.28
2023-02-11T17:37:00.329Z,98785.25
2023-02-11T17:39:27.719Z,98778.31
2023-02-11T17:41:54.170Z,98786.13
2023-02-11T17:44:20.665Z,98787.63
2023-02-11T17:46:47.145Z,98787.72
2023-02-11T17:49:13.662Z,98781.06
2023-02-11T17:51:40.644Z,98776.72
2023-02-11T17:54:11.222Z,98785.38
2023-02-11T17:56:38.411Z,98783.00
2023-02-11T17:59:06.135Z,98793.06
2023-02-11T18:01:33.670Z,98795.38
2023-02-11T18:04:00.782Z,98784.03
2023-02-11T18:06:29.199Z,98792.25
2023-02-11T18:08:59.707Z,98785.81
2023-02-11T18:11:26.317Z,98796.09
2023-02-11T18:13:54.415Z,98793.53
2023-02-11T18:16:22.315Z,98800.13
2023-02-11T18:18:49.836Z,98802.84
2023-02-11T18:21:19.290Z,98804.28
2023-02-11T18:23:46.448Z,98809.94
2023-02-11T18:26:14.712Z,98804.50
2023-02-11T18:28:44.509Z,98805.56
2023-02-11T18:31:12.575Z,98810.53
2023-02-11T18:33:40.432Z,98812.66
2023-02-11T18:36:08.966Z,98812.19
2023-02-11T18:38:35.729Z,98815.47
2023-02-11T18:41:02.909Z,98813.53
2023-02-11T18:43:31.735Z,98813.50
2023-02-11T18:45:58.396Z,98807.66
2023-02-11T18:48:29.056Z,98820.75
2023-02-11T18:50:56.112Z,98824.03
2023-02-11T18:53:24.698Z,98819.06
2023-02-11T18:55:52.888Z,98822.72
2023-02-11T18:58:21.248Z,98832.50
2023-02-11T19:00:48.663Z,98819.88
2023-02-11T19:03:15.678Z,98829.44
2023-02-11T19:05:46.515Z,98825.94
2023-02-11T19:08:13.394Z,98825.44
2023-02-11T19:10:41.748Z,98826.56
2023-02-11T19:13:08.675Z,98828.91
2023-02-11T19:15:36.040Z,98830.94
2023-02-11T19:18:02.491Z,98831.59
2023-02-11T19:20:33.475Z,98826.03
2023-02-11T19:23:00.888Z,98833.25
2023-02-11T19:25:27.614Z,98834.53
2023-02-11T19:27:54.064Z,98830.94
2023-02-11T19:30:20.576Z,98824.41
2023-02-11T19:32:52.371Z,98823.44
2023-02-11T19:35:20.090Z,98823.75
2023-02-11T19:37:46.664Z,98822.44
2023-02-11T19:40:16.575Z,98824.06
2023-02-11T19:42:43.496Z,98821.28
2023-02-11T19:45:10.356Z,98818.16
2023-02-11T19:47:36.943Z,98813.22
2023-02-11T19:50:05.135Z,98813.19
2023-02-11T19:52:31.753Z,98814.34
2023-02-11T19:54:58.222Z,98818.13
2023-02-11T19:57:24.712Z,98802.91
2023-02-11T19:59:53.241Z,98813.22
2023-02-11T20:02:19.825Z,98810.91
2023-02-11T20:04:46.373Z,98812.19
2023-02-11T20:07:13.214Z,98811.25
2023-02-11T20:09:45.265Z,98816.16
2023-02-11T20:12:12.149Z,98811.53
2023-02-11T20:14:39.050Z,98813.19
2023-02-11T20:17:05.504Z,98810.09
2023-02-11T20:19:32.090Z,98812.06
2023-02-11T20:21:58.557Z,98816.03
2023-02-11T20:24:26.030Z,98823.06
2023-02-11T20:26:56.256Z,98816.34
2023-02-11T20:29:24.563Z,98811.31
2023-02-11T20:31:51.295Z,98810.28
2023-02-11T20:34:18.124Z,98811.47
2023-02-11T20:36:51.626Z,98813.91
2023-02-11T20:39:21.623Z,98817.81
2023-02-11T20:41:48.528Z,98812.59
2023-02-11T20:44:15.520Z,98809.63
2023-02-11T20:46:45.973Z,98814.88
2023-02-11T20:49:18.799Z,98813.41
2023-02-11T20:51:46.130Z,98809.31
2023-02-11T20:54:19.510Z,98802.00
2023-02-11T20:56:48.069Z,98809.16
2023-02-11T20:59:16.590Z,98819.19
2023-02-11T21:01:45.917Z,98812.03
2023-02-11T21:04:15.839Z,98809.22
2023-02-11T21:06:45.350Z,98813.16
2023-02-11T21:09:16.873Z,98810.19
2023-02-11T21:11:43.337Z,98817.69
2023-02-11T21:14:10.381Z,98826.50
2023-02-11T21:16:37.412Z,98826.38
2023-02-11T21:19:04.306Z,98820.66
2023-02-11T21:21:34.808Z,98826.50
2023-02-11T21:24:01.492Z,98836.28
2023-02-11T21:26:28.011Z,98827.13
2023-02-11T21:28:55.219Z,98831.34
2023-02-11T21:31:27.614Z,98825.81
2023-02-11T21:33:55.378Z,98827.63
2023-02-11T21:36:23.060Z,98837.59
2023-02-11T21:38:50.116Z,98844.50
2023-02-11T21:41:17.301Z,98839.94
2023-02-11T21:43:44.103Z,98844.88
2023-02-11T21:46:13.939Z,98848.44
2023-02-11T21:48:40.750Z,98850.41
2023-02-11T21:51:11.280Z,98848.38
2023-02-11T21:53:38.314Z,98850.00
2023-02-11T21:56:11.397Z,98844.47
2023-02-11T21:58:38.330Z,98848.06
2023-02-11T22:01:16.967Z,98844.81
2023-02-11T22:03:44.359Z,98857.13
2023-02-11T22:06:14.457Z,98856.97
2023-02-11T22:08:41.364Z,98856.97
2023-02-11T22:11:11.227Z,98854.31
2023-02-11T22:13:37.741Z,98852.72
2023-02-11T22:16:08.876Z,98859.91
2023-02-11T22:18:35.389Z,98864.63
2023-02-11T22:21:08.106Z,98868.56
2023-02-11T22:23:35.481Z,98862.09
2023-02-11T22:26:14.054Z,98855.22
2023-02-11T22:28:40.976Z,98870.28
2023-02-11T22:31:12.289Z,98867.03
2023-02-11T22:33:39.191Z,98867.31
2023-02-11T22:36:08.755Z,98868.97
2023-02-11T22:38:36.484Z,98866.00
2023-02-11T22:41:08.562Z,98857.84
2023-02-11T22:43:35.783Z,98864.06
2023-02-11T22:46:03.511Z,98864.06
2023-02-11T22:48:30.123Z,98865.38
2023-02-11T22:50:56.703Z,98863.75
2023-02-11T22:53:25.516Z,98868.97
2023-02-11T22:55:52.441Z,98874.91
2023-02-11T22:58:19.177Z,98871.81
2023-02-11T23:00:45.714Z,98876.16
2023-02-11T23:03:12.424Z,98878.75
2023-02-11T23:05:40.184Z,98868.78
2023-02-11T23:08:08.559Z,98866.31
2023-02-11T23:10:36.782Z,98875.78
2023-02-11T23:13:05.137Z,98866.38
2023-02-11T23:15:31.807Z,98863.59
2023-02-11T23:17:58.791Z,98867.84
2023-02-11T23:20:25.449Z,98875.53
2023-02-11T23:22:51.942Z,98877.78
2023-02-11T23:25:18.459Z,98874.19
2023-02-11T23:27:44.910Z,98873.59
2023-02-11T23:30:11.967Z,98867.31
2023-02-11T23:32:39.298Z,98874.53
2023-02-11T23:35:06.066Z,98867.03
2023-02-11T23:37:32.576Z,98872.56
2023-02-11T23:39:59.030Z,98865.31
2023-02-11T23:42:25.782Z,98875.66
2023-02-11T23:44:52.231Z,98876.88
2023-02-11T23:47:18.655Z,98881.47
2023-02-11T23:49:45.136Z,98875.25
2023-02-11T23:52:11.756Z,98885.06
2023-02-11T23:54:38.258Z,98885.34
2023-02-11T23:57:04.698Z,98887.00
2023-02-11T23:59:31.176Z,98877.69
